Time;durP1;ratioP1;P1;durP2;ratioP2;P2;SDS_P1;SDS_P2;PMS_P1;PMS_P2;Temp;Humidity;BMP_temperature;BMP_pressure;BME280_temperature;BME280_humidity;BME280_pressure;Samples;Min_cycle;Max_cycle;Signal;HPM_P1;HPM_P2
2021/11/24 00:01:13;;;;;;;54.60;28.20;;;;;;;3.68;86.70;99319.58;104810;1317;22573;-83
2021/11/24 00:03:40;;;;;;;53.90;28.30;;;;;;;3.69;86.68;99316.41;104625;1324;138318;-82
2021/11/24 00:06:07;;;;;;;44.60;25.80;;;;;;;3.72;86.73;99314.97;103639;1316;22702;-83
2021/11/24 00:08:35;;;;;;;44.60;26.20;;;;;;;3.75;86.72;99318.55;104389;1322;138539;-82
2021/11/24 00:11:02;;;;;;;45.00;25.20;;;;;;;3.75;86.60;99315.84;103827;1322;22610;-82
2021/11/24 00:13:29;;;;;;;46.80;26.80;;;;;;;3.75;86.51;99319.27;103462;1326;22628;-82
2021/11/24 00:15:56;;;;;;;44.60;25.40;;;;;;;3.75;86.52;99320.67;104277;1324;138260;-82
2021/11/24 00:18:27;;;;;;;46.80;24.70;;;;;;;3.76;86.55;99320.23;103715;1325;24257;-83
2021/11/24 00:20:56;;;;;;;50.50;24.70;;;;;;;3.79;86.47;99320.81;103945;1320;138365;-83
2021/11/24 00:23:23;;;;;;;43.10;23.90;;;;;;;3.81;86.57;99321.98;103698;1321;22660;-83
2021/11/24 00:25:50;;;;;;;43.70;23.90;;;;;;;3.83;86.39;99325.34;104147;1321;22582;-83
2021/11/24 00:28:17;;;;;;;45.70;25.00;;;;;;;3.84;86.33;99324.02;103377;1319;137942;-82
2021/11/24 00:30:46;;;;;;;47.20;25.50;;;;;;;3.84;86.35;99324.64;103766;1325;24468;-82
2021/11/24 00:33:13;;;;;;;42.90;23.90;;;;;;;3.85;86.18;99326.52;104254;1324;138377;-83
2021/11/24 00:35:54;;;;;;;39.90;22.10;;;;;;;3.85;86.09;99324.23;103941;1320;22632;-83
2021/11/24 00:38:23;;;;;;;42.90;22.70;;;;;;;3.86;86.42;99326.96;103528;1324;138779;-82
2021/11/24 00:40:52;;;;;;;40.50;22.50;;;;;;;3.87;86.18;99323.03;104566;1321;22785;-83
2021/11/24 00:43:21;;;;;;;43.90;23.00;;;;;;;3.87;86.12;99320.60;104673;1325;24381;-83
2021/11/24 00:45:50;;;;;;;43.30;23.90;;;;;;;3.88;86.03;99319.03;103653;1321;138686;-84
2021/11/24 00:48:17;;;;;;;44.50;21.90;;;;;;;3.87;86.03;99322.34;104145;1321;23288;-83
2021/11/24 00:50:45;;;;;;;40.50;21.30;;;;;;;3.86;86.15;99322.11;103438;1322;138003;-83
2021/11/24 00:53:12;;;;;;;37.20;21.00;;;;;;;3.84;86.23;99325.96;104204;1322;22878;-82
2021/11/24 00:55:39;;;;;;;38.10;19.90;;;;;;;3.83;86.32;99324.50;104369;1324;22654;-82
2021/11/24 00:58:06;;;;;;;39.40;20.10;;;;;;;3.84;86.33;99322.20;103783;1325;138808;-83
2021/11/24 01:00:33;;;;;;;37.90;20.80;;;;;;;3.86;86.61;99325.34;103685;1316;22641;-82
2021/11/24 01:03:00;;;;;;;39.60;21.30;;;;;;;3.88;86.59;99325.45;103673;1316;137592;-82
2021/11/24 01:05:27;;;;;;;43.50;22.30;;;;;;;3.88;86.68;99324.79;104313;1318;22584;-82
2021/11/24 01:07:54;;;;;;;44.80;23.20;;;;;;;3.88;86.49;99325.67;103710;1324;22702;-83
2021/11/24 01:10:20;;;;;;;41.60;22.40;;;;;;;3.88;86.57;99322.94;104436;1319;138515;-83
2021/11/24 01:12:47;;;;;;;40.70;21.10;;;;;;;3.90;86.74;99322.05;103825;1319;25348;-82
2021/11/24 01:15:15;;;;;;;46.80;24.20;;;;;;;3.91;86.92;99322.61;102956;1326;138038;-82
2021/11/24 01:17:42;;;;;;;51.10;25.60;;;;;;;3.90;86.72;99320.53;104100;1319;25651;-82
2021/11/24 01:20:10;;;;;;;44.20;24.00;;;;;;;3.88;86.75;99322.93;103696;1320;138751;-83
2021/11/24 01:22:37;;;;;;;46.80;23.70;;;;;;;3.87;86.95;99324.73;104395;1316;23250;-82
2021/11/24 01:25:18;;;;;;;42.80;22.20;;;;;;;3.89;86.99;99323.60;103634;1322;22575;-82
2021/11/24 01:27:45;;;;;;;38.10;21.20;;;;;;;3.89;86.88;99320.54;103866;1320;137879;-82
2021/11/24 01:30:14;;;;;;;45.50;23.50;;;;;;;3.87;86.93;99321.63;104407;1319;23763;-82
2021/11/24 01:32:55;;;;;;;38.70;20.30;;;;;;;3.85;86.85;99319.70;103729;1321;138943;-82
2021/11/24 01:35:22;;;;;;;41.80;20.90;;;;;;;3.82;86.75;99319.04;104068;1322;22638;-83
2021/11/24 01:37:49;;;;;;;40.90;21.50;;;;;;;3.80;86.86;99315.66;103857;1323;22608;-82
2021/11/24 01:40:16;;;;;;;40.60;23.10;;;;;;;3.77;87.10;99313.89;103829;1322;138290;-83
2021/11/24 01:42:43;;;;;;;45.30;24.20;;;;;;;3.74;86.97;99313.98;103918;1317;24432;-83
2021/11/24 01:45:14;;;;;;;42.30;22.80;;;;;;;3.73;87.19;99310.11;103727;1317;138237;-83
2021/11/24 01:47:41;;;;;;;37.60;20.70;;;;;;;3.74;87.19;99306.27;104385;1323;22560;-83
2021/11/24 01:50:09;;;;;;;34.40;20.60;;;;;;;3.74;86.99;99308.23;103847;1322;138250;-83
2021/11/24 01:52:36;;;;;;;38.90;21.00;;;;;;;3.72;87.07;99310.83;103164;1319;24348;-83
2021/11/24 01:55:05;;;;;;;38.80;21.70;;;;;;;3.69;86.96;99310.24;104081;1321;22614;-83
2021/11/24 01:57:49;;;;;;;35.10;20.70;;;;;;;3.67;87.05;99313.09;103594;1319;138394;-82
2021/11/24 02:00:32;;;;;;;36.40;20.20;;;;;;;3.65;87.15;99309.48;104901;1317;23304;-82
2021/11/24 02:03:02;;;;;;;35.70;20.80;;;;;;;3.66;87.19;99308.31;103693;1316;138252;-82
2021/11/24 02:05:43;;;;;;;36.30;19.80;;;;;;;3.65;87.31;99304.04;103583;1321;24280;-82
2021/11/24 02:08:10;;;;;;;39.20;21.90;;;;;;;3.63;87.24;99307.40;103472;1322;138261;-82
2021/11/24 02:10:37;;;;;;;40.40;22.30;;;;;;;3.61;87.29;99309.36;104036;1323;22670;-83
2021/11/24 02:13:04;;;;;;;38.90;22.30;;;;;;;3.61;87.27;99304.58;104678;1317;23132;-82
2021/11/24 02:15:31;;;;;;;38.40;20.90;;;;;;;3.61;87.32;99307.48;103793;1319;138430;-82
2021/11/24 02:18:06;;;;;;;37.80;21.10;;;;;;;3.61;87.43;99308.17;104055;1323;22621;-82
2021/11/24 02:20:42;;;;;;;39.30;22.70;;;;;;;3.60;87.47;99307.19;103907;1322;138350;-83
2021/11/24 02:23:11;;;;;;;43.50;22.30;;;;;;;3.59;87.55;99307.29;104012;1320;24214;-82
2021/11/24 02:25:40;;;;;;;38.50;21.90;;;;;;;3.61;87.44;99306.56;105074;1319;24292;-82
2021/11/24 02:28:08;;;;;;;;;;;;;;;3.62;87.48;99303.00;104907;1316;138467;-82
2021/11/24 02:30:35;;;;;;;37.20;20.30;;;;;;;3.60;87.46;99300.69;103593;1319;22652;-83
2021/11/24 02:33:03;;;;;;;40.90;22.00;;;;;;;3.57;87.36;99302.02;103586;1319;138083;-82
2021/11/24 02:35:30;;;;;;;38.30;20.60;;;;;;;3.54;87.59;99303.42;104031;1319;23296;-82
2021/11/24 02:37:58;;;;;;;36.90;20.30;;;;;;;3.53;87.51;99305.00;104401;1322;22583;-82
2021/11/24 02:40:32;;;;;;;37.00;21.00;;;;;;;3.51;87.73;99304.08;103552;1321;138582;-82
2021/11/24 02:43:00;;;;;;;36.40;20.90;;;;;;;3.52;87.84;99298.24;104193;1321;24432;-82
2021/11/24 02:45:41;;;;;;;37.70;20.10;;;;;;;3.53;87.88;99292.39;103818;1322;137937;-82
2021/11/24 02:48:22;;;;;;;35.80;19.60;;;;;;;3.55;87.72;99293.28;103612;1323;22629;-82
2021/11/24 02:51:04;;;;;;;32.80;19.10;;;;;;;3.54;87.68;99299.23;104847;1321;138366;-82
2021/11/24 02:53:32;;;;;;;29.90;18.90;;;;;;;3.55;87.71;99297.64;103768;1323;22767;-81
2021/11/24 02:56:00;;;;;;;35.80;18.50;;;;;;;3.56;87.76;99297.41;104832;1317;25493;-82
2021/11/24 02:58:31;;;;;;;34.70;20.10;;;;;;;3.55;87.64;99302.36;104664;1323;137624;-82
2021/11/24 03:01:01;;;;;;;36.30;20.40;;;;;;;3.55;87.66;99298.02;103715;1317;22595;-82
2021/11/24 03:03:42;;;;;;;34.40;18.30;;;;;;;3.57;87.61;99296.60;103977;1322;138288;-82
2021/11/24 03:06:09;;;;;;;31.30;17.90;;;;;;;3.58;87.74;99297.87;104089;1322;22729;-83
2021/11/24 03:08:38;;;;;;;35.20;20.90;;;;;;;3.60;87.71;99295.67;104255;1316;138067;-82
2021/11/24 03:11:19;;;;;;;35.40;19.90;;;;;;;3.60;87.46;99293.91;104273;1316;22663;-82
2021/11/24 03:13:46;;;;;;;37.50;18.80;;;;;;;3.58;87.43;99295.04;103697;1319;22596;-82
2021/11/24 03:16:26;;;;;;;31.00;17.20;;;;;;;3.58;87.48;99296.32;103444;1323;138433;-83
2021/11/24 03:18:54;;;;;;;32.70;18.10;;;;;;;3.59;87.64;99296.89;104272;1324;22533;-82
2021/11/24 03:21:21;;;;;;;30.30;16.80;;;;;;;3.60;87.65;99296.91;104908;1322;138072;-82
2021/11/24 03:23:47;;;;;;;31.90;18.70;;;;;;;3.58;87.49;99292.48;104577;1320;22596;-82
2021/11/24 03:26:15;;;;;;;33.60;19.60;;;;;;;3.58;87.62;99292.52;103747;1319;138426;-82
2021/11/24 03:28:42;;;;;;;27.50;17.40;;;;;;;3.61;87.68;99294.17;105108;1316;22748;-82
2021/11/24 03:31:10;;;;;;;28.80;17.10;;;;;;;3.61;87.49;99293.55;103650;1323;24350;-82
2021/11/24 03:33:37;;;;;;;28.30;17.10;;;;;;;3.60;87.40;99289.95;103923;1319;138978;-82
2021/11/24 03:36:04;;;;;;;32.80;17.70;;;;;;;3.58;87.54;99286.96;103622;1318;22615;-83
2021/11/24 03:38:32;;;;;;;30.50;17.60;;;;;;;3.57;87.51;99287.27;103612;1325;139041;-81
2021/11/24 03:40:59;;;;;;;29.30;16.90;;;;;;;3.55;87.42;99288.66;103808;1310;24245;-81
2021/11/24 03:43:25;;;;;;;26.90;16.40;;;;;;;3.54;87.37;99283.28;103884;1319;23385;-81
2021/11/24 03:45:52;;;;;;;28.00;16.40;;;;;;;3.52;87.34;99283.84;103991;1321;138144;-81
2021/11/24 03:48:19;;;;;;;29.40;17.10;;;;;;;3.50;87.55;99284.66;103717;1319;25246;-81
2021/11/24 03:50:46;;;;;;;26.50;16.80;;;;;;;3.50;87.68;99282.14;103776;1320;138465;-81
2021/11/24 03:53:14;;;;;;;27.60;15.80;;;;;;;3.52;87.68;99279.47;104581;1320;24366;-82
2021/11/24 03:55:44;;;;;;;29.60;16.40;;;;;;;3.52;87.57;99279.56;104853;1319;22636;-81
2021/11/24 03:58:11;;;;;;;27.20;15.50;;;;;;;3.53;87.65;99276.46;104117;1316;138634;-81
2021/11/24 04:00:39;;;;;;;31.80;17.80;;;;;;;3.52;87.70;99274.91;103805;1323;22585;-84
2021/11/24 04:03:06;;;;;;;31.80;17.00;;;;;;;3.53;87.72;99272.42;104055;1317;138150;-83
2021/11/24 04:05:33;;;;;;;33.80;17.80;;;;;;;3.54;87.68;99267.73;103819;1321;22603;-82
2021/11/24 04:08:00;;;;;;;31.10;17.60;;;;;;;3.53;87.55;99268.31;103817;1323;22653;-82
2021/11/24 04:10:28;;;;;;;31.30;17.10;;;;;;;3.53;87.81;99266.35;104622;1317;138058;-82
2021/11/24 04:12:55;;;;;;;34.70;18.90;;;;;;;3.54;87.92;99265.39;103885;1316;22728;-81
2021/11/24 04:15:22;;;;;;;32.20;16.80;;;;;;;3.52;87.86;99265.93;105032;1323;138608;-81
2021/11/24 04:17:49;;;;;;;26.60;17.30;;;;;;;3.51;87.80;99259.24;104353;1324;26069;-81
2021/11/24 04:20:19;;;;;;;26.60;15.80;;;;;;;3.49;87.83;99256.23;103652;1322;138830;-81
2021/11/24 04:22:46;;;;;;;30.60;17.10;;;;;;;3.46;87.91;99256.75;104963;1316;22488;-81
2021/11/24 04:25:14;;;;;;;30.70;18.20;;;;;;;3.43;87.93;99253.88;104427;1317;22757;-82
2021/11/24 04:27:41;;;;;;;32.00;18.80;;;;;;;3.41;88.05;99254.63;105193;1322;139178;-82
2021/11/24 04:30:09;;;;;;;30.10;17.60;;;;;;;3.41;88.05;99257.86;103732;1321;22703;-81
2021/11/24 04:32:36;;;;;;;28.60;16.70;;;;;;;3.40;88.23;99256.18;103919;1321;138266;-83
2021/11/24 04:35:05;;;;;;;30.50;18.10;;;;;;;3.43;88.10;99258.20;103718;1323;22789;-81
2021/11/24 04:37:34;;;;;;;33.10;18.80;;;;;;;3.42;88.24;99264.22;103562;1323;23926;-81
2021/11/24 04:40:02;;;;;;;;;;;;;;;3.41;88.17;99264.82;103705;1323;139407;-81
2021/11/24 04:42:29;;;;;;;29.00;16.60;;;;;;;3.42;88.20;99259.55;103872;1319;25508;-81
2021/11/24 04:44:56;;;;;;;28.60;16.60;;;;;;;3.41;88.09;99263.08;104102;1317;138515;-81
2021/11/24 04:47:23;;;;;;;27.20;17.10;;;;;;;3.38;88.20;99262.50;104174;1316;25425;-81
2021/11/24 04:49:50;;;;;;;30.90;16.90;;;;;;;3.36;88.22;99263.15;104120;1316;22517;-82
2021/11/24 04:52:17;;;;;;;31.00;17.00;;;;;;;3.34;88.09;99258.02;104272;1316;138881;-81
2021/11/24 04:54:43;;;;;;;26.60;16.40;;;;;;;3.33;88.08;99262.36;103215;1325;25319;-81
2021/11/24 04:57:13;;;;;;;27.60;16.10;;;;;;;3.34;88.29;99257.04;105213;1314;199981;-81
2021/11/24 04:59:41;;;;;;;30.20;17.20;;;;;;;3.36;88.29;99259.55;104677;1323;24425;-81
2021/11/24 05:02:08;;;;;;;29.10;17.50;;;;;;;3.35;88.21;99252.86;104052;1316;24307;-81
2021/11/24 05:04:49;;;;;;;26.10;16.20;;;;;;;3.35;88.26;99252.26;104475;1316;138750;-81
2021/11/24 05:07:17;;;;;;;23.40;14.40;;;;;;;3.35;88.06;99251.88;104561;1316;25281;-81
2021/11/24 05:09:44;;;;;;;21.80;14.60;;;;;;;3.35;88.06;99251.79;104659;1316;138784;-81
2021/11/24 05:12:11;;;;;;;25.70;15.80;;;;;;;3.35;88.22;99251.00;104808;1316;22725;-81
2021/11/24 05:14:43;;;;;;;27.80;16.50;;;;;;;3.36;88.18;99249.19;103576;1316;138626;-81
2021/11/24 05:17:13;;;;;;;27.20;16.90;;;;;;;3.35;88.04;99246.48;103792;1316;22634;-81
2021/11/24 05:19:46;;;;;;;23.90;14.60;;;;;;;3.35;88.07;99240.23;104008;1322;22360;-81
2021/11/24 05:22:18;;;;;;;25.50;15.40;;;;;;;3.35;88.06;99239.16;104254;1316;138676;-82
2021/11/24 05:24:45;;;;;;;24.90;14.60;;;;;;;3.35;88.09;99236.88;104945;1316;22608;-82
2021/11/24 05:27:14;;;;;;;28.00;15.70;;;;;;;3.32;87.91;99238.81;104230;1316;137698;-81
2021/11/24 05:29:41;;;;;;;24.00;14.30;;;;;;;3.31;88.10;99239.81;104963;1316;22586;-82
2021/11/24 05:32:08;;;;;;;25.20;15.30;;;;;;;3.30;87.85;99236.91;104630;1316;22728;-82
2021/11/24 05:34:35;;;;;;;22.90;14.90;;;;;;;3.28;87.81;99242.51;103559;1316;138164;-81
2021/11/24 05:37:02;;;;;;;24.50;14.80;;;;;;;3.27;87.83;99240.87;103934;1319;24690;-82
2021/11/24 05:39:32;;;;;;;30.20;16.80;;;;;;;3.24;87.73;99244.22;104053;1319;138483;-82
2021/11/24 05:41:59;;;;;;;29.70;15.40;;;;;;;3.22;87.87;99243.39;103712;1321;22603;-82
2021/11/24 05:44:26;;;;;;;26.40;14.70;;;;;;;3.21;87.87;99249.01;104001;1316;22663;-82
2021/11/24 05:46:58;;;;;;;32.70;16.40;;;;;;;3.21;88.00;99250.63;104779;1316;138245;-82
2021/11/24 05:49:26;;;;;;;28.70;15.40;;;;;;;3.20;87.94;99251.51;105066;1319;26593;-82
2021/11/24 05:51:55;;;;;;;36.40;17.90;;;;;;;3.19;88.14;99251.04;104486;1321;138596;-82
2021/11/24 05:54:24;;;;;;;31.30;17.60;;;;;;;3.20;88.17;99251.67;103795;1322;22642;-82
2021/11/24 05:56:52;;;;;;;27.60;15.60;;;;;;;3.22;88.24;99254.15;103503;1322;138535;-82
2021/11/24 05:59:19;;;;;;;29.00;16.40;;;;;;;3.24;88.02;99253.04;103928;1325;22606;-83
2021/11/24 06:01:47;;;;;;;25.60;16.60;;;;;;;3.26;88.12;99251.45;104653;1322;24429;-82
2021/11/24 06:04:13;;;;;;;28.70;18.00;;;;;;;3.27;88.15;99251.98;103460;1322;137678;-83
2021/11/24 06:06:40;;;;;;;32.10;17.90;;;;;;;3.29;88.19;99253.23;104280;1322;25537;-82
2021/11/24 06:09:21;;;;;;;29.50;16.80;;;;;;;3.30;87.98;99254.67;104366;1316;138771;-82
2021/11/24 06:11:48;;;;;;;29.20;16.90;;;;;;;3.32;88.14;99256.20;103882;1321;22674;-82
2021/11/24 06:14:15;;;;;;;24.60;15.70;;;;;;;3.34;88.14;99256.23;104068;1316;22692;-82
2021/11/24 06:16:42;;;;;;;26.80;16.20;;;;;;;3.34;88.11;99255.63;103623;1322;137514;-82
2021/11/24 06:19:09;;;;;;;26.80;16.10;;;;;;;3.36;88.17;99256.98;104142;1317;22736;-82
2021/11/24 06:21:36;;;;;;;29.50;15.90;;;;;;;3.40;88.17;99261.07;104039;1316;138714;-82
2021/11/24 06:24:16;;;;;;;28.50;15.10;;;;;;;3.41;87.98;99260.15;104482;1316;24327;-81
2021/11/24 06:26:43;;;;;;;28.80;15.00;;;;;;;3.43;88.05;99263.70;103767;1322;137878;-82
2021/11/24 06:29:10;;;;;;;28.10;16.30;;;;;;;3.43;87.76;99266.61;105204;1316;22622;-82
2021/11/24 06:31:37;;;;;;;26.30;14.80;;;;;;;3.42;87.80;99265.60;104565;1316;23456;-81
2021/11/24 06:34:04;;;;;;;30.10;14.40;;;;;;;3.43;87.64;99268.23;103928;1319;138398;-82
2021/11/24 06:36:31;;;;;;;28.80;15.20;;;;;;;3.42;87.66;99264.86;104137;1321;24336;-82
2021/11/24 06:38:58;;;;;;;25.70;14.50;;;;;;;3.45;87.76;99269.52;104473;1316;137991;-82
2021/11/24 06:41:39;;;;;;;23.10;14.10;;;;;;;3.47;87.68;99274.48;104177;1320;24228;-82
2021/11/24 06:44:22;;;;;;;35.00;18.40;;;;;;;3.49;87.72;99276.36;104431;1316;22608;-82
2021/11/24 06:47:03;;;;;;;30.10;17.10;;;;;;;3.53;87.89;99277.27;103789;1316;138151;-82
2021/11/24 06:49:33;;;;;;;32.30;18.40;;;;;;;3.59;87.83;99275.88;104370;1316;22715;-82
2021/11/24 06:52:00;;;;;;;30.00;17.80;;;;;;;3.62;87.77;99273.70;103735;1322;137913;-82
2021/11/24 06:54:30;;;;;;;31.10;18.50;;;;;;;3.65;87.56;99277.42;103648;1323;22564;-82
2021/11/24 06:56:57;;;;;;;31.60;18.60;;;;;;;3.66;87.57;99279.10;104049;1319;138392;-82
2021/11/24 06:59:37;;;;;;;27.30;15.40;;;;;;;3.70;87.54;99282.86;105195;1318;22645;-82
2021/11/24 07:02:05;;;;;;;34.10;17.40;;;;;;;3.75;87.51;99288.02;103906;1318;23410;-82
2021/11/24 07:04:34;;;;;;;37.60;18.00;;;;;;;3.79;87.58;99288.09;105274;1319;138552;-82
2021/11/24 07:07:01;;;;;;;30.20;16.30;;;;;;;3.82;87.30;99290.82;104831;1320;25364;-82
2021/11/24 07:09:28;;;;;;;27.30;14.70;;;;;;;3.84;87.41;99292.86;104024;1316;138357;-82
2021/11/24 07:11:58;;;;;;;27.00;14.10;;;;;;;3.86;87.22;99293.35;105309;1320;22634;-82
2021/11/24 07:14:28;;;;;;;24.70;14.30;;;;;;;3.90;87.06;99292.08;104635;1323;22668;-82
2021/11/24 07:16:55;;;;;;;27.20;14.20;;;;;;;3.93;87.10;99294.20;104107;1323;137660;-82
2021/11/24 07:19:22;;;;;;;26.50;15.20;;;;;;;3.99;87.41;99291.65;104467;1322;22755;-81
2021/11/24 07:21:50;;;;;;;27.80;15.60;;;;;;;4.04;87.30;99295.08;104481;1323;138642;-84
2021/11/24 07:24:18;;;;;;;29.20;16.60;;;;;;;4.07;86.82;99293.48;103919;1319;22538;-84
2021/11/24 07:26:46;;;;;;;27.00;16.50;;;;;;;4.09;86.64;99293.80;104464;1322;138829;-81
2021/11/24 07:29:14;;;;;;;25.70;15.40;;;;;;;4.11;86.78;99289.06;104867;1316;22599;-81
2021/11/24 07:31:41;;;;;;;29.60;16.80;;;;;;;4.13;86.81;99289.67;103912;1322;22703;-81
2021/11/24 07:34:08;;;;;;;24.50;15.00;;;;;;;4.15;86.64;99285.84;103566;1316;138163;-81
2021/11/24 07:36:34;;;;;;;24.10;14.30;;;;;;;4.15;86.51;99283.41;104740;1317;22744;-80
2021/11/24 07:39:02;;;;;;;25.30;15.00;;;;;;;4.15;86.08;99278.85;104626;1320;138664;-81
2021/11/24 07:41:43;;;;;;;23.70;15.30;;;;;;;4.14;86.13;99276.09;104825;1321;22337;-81
2021/11/24 07:44:10;;;;;;;24.20;15.80;;;;;;;4.14;86.22;99279.27;104086;1316;25306;-81
2021/11/24 07:46:37;;;;;;;25.90;14.60;;;;;;;4.16;86.37;99277.27;103241;1322;137848;-83
2021/11/24 07:49:04;;;;;;;24.90;13.90;;;;;;;4.18;86.30;99279.77;103861;1322;22619;-83
2021/11/24 07:51:44;;;;;;;25.20;14.00;;;;;;;4.19;86.18;99277.55;103996;1317;138719;-83
2021/11/24 07:54:25;;;;;;;21.10;13.00;;;;;;;4.23;86.15;99272.74;103623;1319;25377;-83
2021/11/24 07:57:06;;;;;;;23.30;13.70;;;;;;;4.25;86.14;99269.95;103989;1322;138346;-83
2021/11/24 07:59:35;;;;;;;23.10;14.50;;;;;;;4.22;85.82;99263.46;103871;1326;25357;-84
2021/11/24 08:02:02;;;;;;;23.60;13.10;;;;;;;4.18;85.56;99266.37;103972;1316;22607;-83
2021/11/24 08:04:29;;;;;;;20.60;13.40;;;;;;;4.16;85.74;99266.42;104163;1319;138638;-83
2021/11/24 08:07:00;;;;;;;25.40;14.30;;;;;;;4.17;85.75;99269.92;104179;1315;25265;-83
2021/11/24 08:09:27;;;;;;;25.50;14.20;;;;;;;4.18;85.92;99265.88;103747;1316;137885;-83
2021/11/24 08:11:55;;;;;;;23.20;13.90;;;;;;;4.19;85.71;99266.67;104102;1316;24432;-83
2021/11/24 08:14:22;;;;;;;24.40;14.20;;;;;;;4.18;85.85;99267.32;103902;1316;25390;-82
2021/11/24 08:16:49;;;;;;;26.40;15.80;;;;;;;4.18;85.83;99275.34;103700;1319;138702;-83
2021/11/24 08:19:16;;;;;;;26.80;14.10;;;;;;;4.19;85.62;99276.17;103870;1322;23207;-83
2021/11/24 08:21:44;;;;;;;23.20;12.60;;;;;;;4.19;85.58;99277.01;104054;1319;138712;-83
2021/11/24 08:24:11;;;;;;;23.80;14.20;;;;;;;4.24;85.84;99281.14;104263;1318;22717;-83
2021/11/24 08:26:42;;;;;;;22.80;13.70;;;;;;;4.25;85.55;99278.71;103872;1319;139078;-81
2021/11/24 08:29:11;;;;;;;25.70;14.70;;;;;;;4.26;85.64;99280.17;103813;1316;24259;-81
2021/11/24 08:31:54;;;;;;;27.80;14.60;;;;;;;4.28;85.58;99284.32;104093;1316;22611;-81
2021/11/24 08:34:21;;;;;;;26.60;13.50;;;;;;;4.32;85.72;99283.59;103982;1316;138407;-83
2021/11/24 08:36:50;;;;;;;31.60;15.60;;;;;;;4.36;85.54;99281.66;103907;1316;25553;-83
2021/11/24 08:39:17;;;;;;;27.60;14.90;;;;;;;4.41;85.55;99278.95;104309;1316;137978;-82
2021/11/24 08:41:45;;;;;;;23.00;13.70;;;;;;;4.42;85.61;99273.79;104016;1324;24346;-81
2021/11/24 08:44:13;;;;;;;27.30;14.80;;;;;;;4.49;85.49;99275.83;104651;1317;23241;-81
2021/11/24 08:46:40;;;;;;;27.50;13.80;;;;;;;4.55;85.50;99276.38;103869;1320;138585;-81
2021/11/24 08:49:07;;;;;;;23.90;13.80;;;;;;;4.60;85.15;99282.05;103863;1316;22627;-83
2021/11/24 08:51:37;;;;;;;26.00;13.50;;;;;;;4.63;85.00;99283.30;104352;1321;137817;-83
2021/11/24 08:54:10;;;;;;;25.80;13.10;;;;;;;4.66;84.75;99279.68;104216;1316;22640;-84
2021/11/24 08:56:39;;;;;;;22.70;13.40;;;;;;;4.70;84.57;99280.14;103769;1321;22806;-83
2021/11/24 08:59:08;;;;;;;24.00;14.20;;;;;;;4.72;84.36;99283.42;104547;1316;137381;-83
2021/11/24 09:01:36;;;;;;;23.30;13.50;;;;;;;4.74;84.14;99281.27;103477;1316;25479;-84
2021/11/24 09:04:04;;;;;;;21.00;12.20;;;;;;;4.78;84.25;99280.48;103254;1323;138657;-83
2021/11/24 09:06:31;;;;;;;23.10;13.60;;;;;;;4.81;83.99;99280.42;103957;1323;22631;-83
2021/11/24 09:08:58;;;;;;;24.50;13.80;;;;;;;4.84;83.79;99281.38;104200;1323;138024;-83
2021/11/24 09:11:25;;;;;;;26.40;13.30;;;;;;;4.85;83.53;99278.28;104887;1322;22577;-81
2021/11/24 09:13:52;;;;;;;22.40;13.50;;;;;;;4.87;83.50;99280.20;104937;1319;22642;-81
2021/11/24 09:16:19;;;;;;;22.50;12.70;;;;;;;4.92;83.57;99279.98;103754;1322;138368;-83
2021/11/24 09:18:46;;;;;;;25.50;12.90;;;;;;;4.95;82.91;99274.50;103857;1319;22660;-83
2021/11/24 09:21:13;;;;;;;24.50;13.80;;;;;;;5.01;83.46;99272.33;104120;1323;137886;-83
2021/11/24 09:23:43;;;;;;;26.30;13.40;;;;;;;5.07;83.27;99268.34;103904;1323;22591;-83
2021/11/24 09:26:26;;;;;;;30.10;15.00;;;;;;;5.12;83.29;99269.52;103680;1321;22703;-84
2021/11/24 09:28:54;;;;;;;28.20;14.10;;;;;;;5.18;82.97;99265.34;103485;1319;137999;-84
2021/11/24 09:31:21;;;;;;;27.30;13.70;;;;;;;5.20;82.71;99264.66;104440;1320;22583;-83
2021/11/24 09:33:48;;;;;;;22.50;12.40;;;;;;;5.26;82.67;99261.98;103704;1321;138187;-83
2021/11/24 09:36:15;;;;;;;24.40;12.80;;;;;;;5.30;82.69;99259.96;104468;1316;22567;-83
2021/11/24 09:38:42;;;;;;;21.90;12.80;;;;;;;5.38;82.39;99257.95;103716;1317;22688;-83
2021/11/24 09:41:12;;;;;;;23.30;13.20;;;;;;;5.42;82.27;99253.71;103390;1319;137469;-83
2021/11/24 09:43:46;;;;;;;20.90;12.30;;;;;;;5.45;82.19;99249.17;104123;1325;22723;-83
2021/11/24 09:46:16;;;;;;;22.40;13.10;;;;;;;5.48;81.94;99249.30;103725;1325;138168;-83
2021/11/24 09:48:45;;;;;;;22.00;13.20;;;;;;;5.51;81.54;99252.48;103553;1323;22564;-83
2021/11/24 09:51:13;;;;;;;;;;;;;;;5.53;81.34;99250.31;103567;1316;139093;-83
2021/11/24 09:53:42;;;;;;;18.80;11.00;;;;;;;5.55;81.19;99252.44;104048;1323;24256;-83
2021/11/24 09:56:10;;;;;;;22.90;11.60;;;;;;;5.55;81.15;99247.57;103792;1320;22906;-84
2021/11/24 09:58:37;;;;;;;20.50;11.80;;;;;;;5.56;80.91;99246.30;103844;1323;138401;-84
2021/11/24 10:01:04;;;;;;;18.60;11.30;;;;;;;5.58;80.80;99244.14;103669;1323;23377;-84
2021/11/24 10:03:31;;;;;;;19.70;10.90;;;;;;;5.58;80.68;99245.48;103633;1323;138260;-84
2021/11/24 10:05:59;;;;;;;19.10;10.60;;;;;;;5.61;80.57;99240.18;103691;1316;26517;-84
2021/11/24 10:08:31;;;;;;;19.30;9.70;;;;;;;5.60;79.78;99237.02;103642;1316;23349;-86
2021/11/24 10:10:59;;;;;;;18.80;10.70;;;;;;;5.65;79.96;99235.33;104031;1316;138073;-84
2021/11/24 10:13:27;;;;;;;30.90;12.30;;;;;;;5.67;79.79;99235.34;103860;1315;23752;-84
2021/11/24 10:15:57;;;;;;;22.50;10.10;;;;;;;5.67;79.56;99230.44;103503;1322;137544;-83
2021/11/24 10:18:31;;;;;;;24.30;12.10;;;;;;;5.68;79.38;99231.66;103754;1316;22580;-83
2021/11/24 10:21:03;;;;;;;21.00;11.40;;;;;;;5.69;79.52;99233.54;103585;1321;137786;-83
2021/11/24 10:23:37;;;;;;;23.50;11.60;;;;;;;5.69;79.20;99232.98;104567;1316;22595;-82
2021/11/24 10:26:22;;;;;;;20.10;10.80;;;;;;;5.70;78.80;99233.54;103950;1319;22704;-81
2021/11/24 10:28:53;;;;;;;20.60;11.40;;;;;;;5.70;78.76;99236.40;104046;1316;138233;-82
2021/11/24 10:31:33;;;;;;;17.80;10.50;;;;;;;5.73;78.73;99232.98;103913;1316;22909;-85
2021/11/24 10:34:10;;;;;;;20.00;11.20;;;;;;;5.74;78.42;99229.48;104273;1316;137703;-81
2021/11/24 10:37:06;;;;;;;18.30;10.00;;;;;;;5.70;77.64;99230.50;103955;1321;22836;-82
2021/11/24 10:39:38;;;;;;;18.70;9.80;;;;;;;5.63;77.07;99224.30;103714;1320;137831;-83
2021/11/24 10:42:25;;;;;;;17.20;10.10;;;;;;;5.60;77.22;99216.91;103866;1319;22719;-83
2021/11/24 10:44:54;;;;;;;16.80;9.70;;;;;;;5.57;76.74;99220.73;104032;1323;138676;-82
2021/11/24 10:47:24;;;;;;;17.80;10.20;;;;;;;5.56;76.88;99214.98;104680;1319;22579;-84
2021/11/24 10:49:53;;;;;;;17.10;9.90;;;;;;;5.56;76.75;99213.95;104323;1319;22584;-81
2021/11/24 10:52:27;;;;;;;16.70;10.00;;;;;;;5.52;76.20;99208.65;103722;1316;137440;-81
2021/11/24 10:55:07;;;;;;;19.00;10.20;;;;;;;5.50;76.49;99202.59;104162;1316;22932;-81
2021/11/24 10:57:36;;;;;;;18.70;10.50;;;;;;;5.50;76.44;99201.81;104049;1316;137739;-82
2021/11/24 11:00:22;;;;;;;20.60;9.60;;;;;;;5.50;76.29;99196.52;103704;1318;23423;-83
2021/11/24 11:02:49;;;;;;;20.90;9.20;;;;;;;5.53;75.92;99190.99;103612;1316;23289;-84
2021/11/24 11:05:23;;;;;;;16.40;9.50;;;;;;;5.58;75.86;99189.90;103093;1323;137784;-84
2021/11/24 11:08:07;;;;;;;20.80;10.70;;;;;;;5.64;76.10;99183.89;103982;1319;22598;-83
2021/11/24 11:10:35;;;;;;;;;;;;;;;5.68;75.60;99180.71;104109;1319;137771;-81
2021/11/24 11:13:08;;;;;;;20.50;11.10;;;;;;;5.69;75.93;99173.63;104117;1323;22730;-83
2021/11/24 11:15:39;;;;;;;19.10;11.20;;;;;;;5.76;76.26;99166.73;104114;1319;138105;-84
2021/11/24 11:18:19;;;;;;;21.00;11.00;;;;;;;5.82;76.21;99166.78;104504;1319;25383;-82
2021/11/24 11:20:53;;;;;;;17.50;9.70;;;;;;;5.86;75.91;99165.02;103957;1319;22592;-82
2021/11/24 11:23:29;;;;;;;16.70;9.90;;;;;;;5.90;75.06;99162.19;104385;1321;138148;-82
2021/11/24 11:25:58;;;;;;;17.70;9.80;;;;;;;5.94;74.63;99159.95;104394;1316;22596;-81